Terminal Aerodrome Forecast
Issued by NWS

Home | Current Version | Previous Version | Text Only | Print | Product List | Glossary On
Versions: 1 2 3 4 5 6 7 8 9 10 11 12
000
FTUS45 KABQ 041700
TAFSAF
TAF
KSAF 041738Z 0418/0518 25008KT P6SM BKN040 BKN060
     FM041900 27015G22KT P6SM VCSH BKN040 BKN080
     FM050100 12012G18KT P6SM BKN025
     FM051000 01007KT P6SM SCT022
     FM051200 02015KT P6SM FEW020
     FM051700 28008KT P6SM SKC=

USA.gov is the U.S. government's official web portal to all federal, state and local government web resources and services.